KLDM/LDM METAR and TAF weather

Enter ICAO airport designator
Station Type Date Time Source
KLDM METAR 2019/10/15 20:55 UTC NOAA

KLDM 152055Z AUTO 16010G16KT 10SM OVC030 12/06 A2967 RMK AO2 T01230061


Station Type Date Time Source
KLDM Decoded METAR 2019/10/15 20:55 UTC NOAA

Ludington, Mason County Airport, MI, United States (KLDM) 43-58N 86-24W
Oct 15, 2019 - 04:55 PM EDT / 2019.10.15 2055 UTC
Wind: from the SSE (160 degrees) at 12 MPH (10 KT) gusting to 18 MPH (16 KT):0
Visibility: 10 mile(s):0
Sky conditions: overcast
Temperature: 54.1 F (12.3 C)
Dew Point: 43.0 F (6.1 C)
Relative Humidity: 65%
Pressure (altimeter): 29.67 in. Hg (1004 hPa)
ob: KLDM 152055Z AUTO 16010G16KT 10SM OVC030 12/06 A2967 RMK AO2 T01230061
cycle: 21

Station Type Date Time Source
KLDM TAF UTC NOAA

Error!

Example: see airport list